createdAt,value
2023-09-18T00:00:36.509Z,100502.03
2023-09-18T00:03:59.730Z,100504.69
2023-09-18T00:07:02.686Z,100497.63
2023-09-18T00:10:15.927Z,100503.81
2023-09-18T00:13:20.340Z,100502.94
2023-09-18T00:16:25.347Z,100493.19
2023-09-18T00:19:30.788Z,100490.50
2023-09-18T00:22:34.876Z,100478.13
2023-09-18T00:25:43.786Z,100481.69
2023-09-18T00:28:46.620Z,100484.37
2023-09-18T00:31:49.646Z,100492.38
2023-09-18T00:34:54.877Z,100482.69
2023-09-18T00:38:05.102Z,100481.78
2023-09-18T00:41:08.236Z,100477.41
2023-09-18T00:44:11.177Z,100484.44
2023-09-18T00:47:22.706Z,100485.38
2023-09-18T00:50:28.749Z,100476.53
2023-09-18T00:53:32.618Z,100478.28
2023-09-18T00:56:35.838Z,100479.19
2023-09-18T00:59:39.770Z,100490.72
2023-09-18T01:02:44.934Z,100482.78
2023-09-18T01:05:47.885Z,100480.19
2023-09-18T01:08:54.889Z,100478.41
2023-09-18T01:12:01.364Z,100482.84
2023-09-18T01:15:09.106Z,100484.66
2023-09-18T01:18:12.071Z,100475.84
2023-09-18T01:21:14.858Z,100494.44
2023-09-18T01:24:17.800Z,100483.78
2023-09-18T01:27:21.019Z,100482.88
2023-09-18T01:30:25.876Z,100476.75
2023-09-18T01:33:29.776Z,100475.84
2023-09-18T01:36:32.623Z,100482.06
2023-09-18T01:39:35.978Z,100482.06
2023-09-18T01:42:39.025Z,100477.66
2023-09-18T01:45:41.986Z,100483.88
2023-09-18T01:48:47.526Z,100481.25
2023-09-18T01:51:50.391Z,100472.44
2023-09-18T01:54:55.959Z,100471.56
2023-09-18T01:58:00.236Z,100470.66
2023-09-18T02:01:06.308Z,100475.09
2023-09-18T02:04:25.325Z,100476.88
2023-09-18T02:07:33.003Z,100474.22
2023-09-18T02:10:36.090Z,100476.88
2023-09-18T02:13:41.034Z,100474.25
2023-09-18T02:16:47.740Z,100471.63
2023-09-18T02:19:50.574Z,100468.06
2023-09-18T02:22:54.130Z,100476.06
2023-09-18T02:25:59.696Z,100476.06
2023-09-18T02:29:03.590Z,100484.91
2023-09-18T02:32:12.523Z,100481.37
2023-09-18T02:35:18.189Z,100478.75
2023-09-18T02:38:20.835Z,100483.19
2023-09-18T02:41:23.880Z,100484.06
2023-09-18T02:44:27.212Z,100483.19
2023-09-18T02:47:30.307Z,100477.87
2023-09-18T02:50:32.923Z,100489.38
2023-09-18T02:53:36.228Z,100489.38
2023-09-18T02:56:40.134Z,100484.97
2023-09-18T02:59:43.396Z,100484.97
2023-09-18T03:02:46.115Z,100491.19
2023-09-18T03:05:49.301Z,100489.41
2023-09-18T03:08:52.010Z,100483.22
2023-09-18T03:11:55.336Z,100486.78
2023-09-18T03:14:57.821Z,100483.22
2023-09-18T03:18:02.012Z,100476.16
2023-09-18T03:21:05.506Z,100481.44
2023-09-18T03:24:09.788Z,100479.69
2023-09-18T03:27:15.227Z,100474.41
2023-09-18T03:30:19.056Z,100470.84
2023-09-18T03:33:21.797Z,100473.50
2023-09-18T03:36:25.134Z,100477.91
2023-09-18T03:39:27.712Z,100468.19
2023-09-18T03:42:30.811Z,100467.31
2023-09-18T03:45:38.507Z,100465.56
2023-09-18T03:48:41.457Z,100469.09
2023-09-18T03:51:45.328Z,100466.47
2023-09-18T03:54:48.695Z,100474.41
2023-09-18T03:57:51.738Z,100467.34
2023-09-18T04:00:54.881Z,100471.78
2023-09-18T04:03:58.962Z,100471.75
2023-09-18T04:07:06.408Z,100470.87
2023-09-18T04:10:10.020Z,100455.88
2023-09-18T04:13:12.679Z,100464.72
2023-09-18T04:16:18.670Z,100461.16
2023-09-18T04:19:21.458Z,100463.81
2023-09-18T04:22:24.211Z,100461.19
2023-09-18T04:25:27.392Z,100459.41
2023-09-18T04:28:32.012Z,100458.53
2023-09-18T04:31:35.498Z,100452.34
2023-09-18T04:34:38.157Z,100448.81
2023-09-18T04:37:41.148Z,100449.69
2023-09-18T04:40:44.434Z,100454.97
2023-09-18T04:43:49.657Z,100457.66
2023-09-18T04:46:52.455Z,100464.69
2023-09-18T04:49:55.208Z,100463.81
2023-09-18T04:52:58.982Z,100469.12
2023-09-18T04:56:02.137Z,100461.16
2023-09-18T04:59:07.263Z,100463.81
2023-09-18T05:02:11.305Z,100466.44
2023-09-18T05:05:15.320Z,100460.28
2023-09-18T05:08:18.595Z,100458.50
2023-09-18T05:11:21.846Z,100455.88
2023-09-18T05:14:24.596Z,100457.66
2023-09-18T05:17:43.042Z,100452.34
2023-09-18T05:20:46.393Z,100454.09
2023-09-18T05:23:49.355Z,100447.03
2023-09-18T05:26:54.131Z,100455.88
2023-09-18T05:29:56.866Z,100448.78
2023-09-18T05:33:09.678Z,100454.97
2023-09-18T05:36:13.857Z,100464.66
2023-09-18T05:39:16.587Z,100467.31
2023-09-18T05:42:19.279Z,100464.66
2023-09-18T05:45:22.061Z,100457.59
2023-09-18T05:48:24.904Z,100443.47
2023-09-18T05:51:28.476Z,100442.56
2023-09-18T05:54:31.316Z,100441.72
2023-09-18T05:57:34.102Z,100432.84
2023-09-18T06:00:38.163Z,100434.59
2023-09-18T06:03:43.838Z,100438.09
2023-09-18T06:06:47.553Z,100433.66
2023-09-18T06:09:50.772Z,100432.78
2023-09-18T06:12:53.928Z,100438.94
2023-09-18T06:15:57.193Z,100441.53
2023-09-18T06:19:01.337Z,100433.50
2023-09-18T06:22:04.467Z,100436.13
2023-09-18T06:25:07.655Z,100442.22
2023-09-18T06:28:10.749Z,100430.72
2023-09-18T06:31:13.285Z,100430.69
2023-09-18T06:34:16.501Z,100435.06
2023-09-18T06:37:22.140Z,100426.13
2023-09-18T06:40:26.445Z,100418.12
2023-09-18T06:43:28.906Z,100425.09
2023-09-18T06:46:33.351Z,100424.94
2023-09-18T06:49:35.948Z,100436.22
2023-09-18T06:52:39.046Z,100426.22
2023-09-18T06:55:44.240Z,100422.44
2023-09-18T06:58:49.140Z,100423.16
2023-09-18T07:01:51.872Z,100419.34
2023-09-18T07:04:55.025Z,100411.94
2023-09-18T07:08:00.072Z,100408.09
2023-09-18T07:11:06.087Z,100411.69
2023-09-18T07:14:09.252Z,100417.88
2023-09-18T07:17:12.335Z,100412.44
2023-09-18T07:20:15.761Z,100410.94
2023-09-18T07:23:19.250Z,100412.16
2023-09-18T07:26:21.754Z,100422.41
2023-09-18T07:29:26.581Z,100417.38
2023-09-18T07:32:38.189Z,100414.06
2023-09-18T07:35:41.956Z,100413.44
2023-09-18T07:38:45.515Z,100411.75
2023-09-18T07:41:51.508Z,100412.31
2023-09-18T07:44:55.109Z,100410.88
2023-09-18T07:47:59.753Z,100409.66
2023-09-18T07:51:05.635Z,100402.63
2023-09-18T07:54:08.850Z,100400.47
2023-09-18T07:57:11.377Z,100402.50
2023-09-18T08:00:16.776Z,100401.56
2023-09-18T08:03:20.065Z,100392.19
2023-09-18T08:06:24.282Z,100395.97
2023-09-18T08:09:27.450Z,100395.22
2023-09-18T08:12:30.224Z,100385.91
2023-09-18T08:15:33.114Z,100383.78
2023-09-18T08:18:36.389Z,100380.31
2023-09-18T08:21:39.386Z,100381.88
2023-09-18T08:24:42.419Z,100369.59
2023-09-18T08:27:45.986Z,100366.78
2023-09-18T08:30:48.853Z,100364.03
2023-09-18T08:33:52.033Z,100361.81
2023-09-18T08:36:55.107Z,100352.09
2023-09-18T08:39:57.958Z,100347.81
2023-09-18T08:43:01.435Z,100354.00
2023-09-18T08:46:05.423Z,100351.47
2023-09-18T08:49:08.807Z,100350.06
2023-09-18T08:52:12.764Z,100344.19
2023-09-18T08:55:16.065Z,100341.66
2023-09-18T08:58:20.767Z,100339.31
2023-09-18T09:01:23.733Z,100341.63
2023-09-18T09:04:27.382Z,100345.87
2023-09-18T09:07:32.508Z,100338.47
2023-09-18T09:10:35.273Z,100348.84
2023-09-18T09:13:41.993Z,100340.41
2023-09-18T09:16:50.385Z,100351.66
2023-09-18T09:19:53.039Z,100349.44
2023-09-18T09:23:01.415Z,100347.72
2023-09-18T09:26:14.162Z,100341.19
2023-09-18T09:29:19.626Z,100350.88
2023-09-18T09:32:22.538Z,100341.28
2023-09-18T09:35:25.373Z,100343.91
2023-09-18T09:38:35.761Z,100339.47
2023-09-18T09:41:38.756Z,100344.22
2023-09-18T09:44:41.752Z,100334.31
2023-09-18T09:47:44.746Z,100335.44
2023-09-18T09:50:50.136Z,100335.44
2023-09-18T09:53:53.974Z,100328.28
2023-09-18T09:56:56.690Z,100329.31
2023-09-18T10:00:09.533Z,100321.75
2023-09-18T10:03:14.433Z,100310.44
2023-09-18T10:06:17.030Z,100301.44
2023-09-18T10:09:21.144Z,100298.22
2023-09-18T10:12:24.890Z,100286.81
2023-09-18T10:15:28.920Z,100284.84
2023-09-18T10:18:47.849Z,100288.66
2023-09-18T10:21:55.623Z,100286.50
2023-09-18T10:25:01.540Z,100278.59
2023-09-18T10:28:04.947Z,100277.44
2023-09-18T10:31:08.613Z,100272.28
2023-09-18T10:34:12.996Z,100266.31
2023-09-18T10:37:16.352Z,100253.63
2023-09-18T10:40:19.810Z,100243.25
2023-09-18T10:43:22.593Z,100255.34
2023-09-18T10:46:26.987Z,100236.38
2023-09-18T10:49:29.767Z,100237.09
2023-09-18T10:52:32.808Z,100237.09
2023-09-18T10:55:35.287Z,100226.75
2023-09-18T10:58:40.006Z,100225.84
2023-09-18T11:01:42.931Z,100228.00
2023-09-18T11:04:46.666Z,100225.03
2023-09-18T11:07:48.965Z,100226.44
2023-09-18T11:11:05.452Z,100234.38
2023-09-18T11:14:12.577Z,100220.94
2023-09-18T11:17:30.840Z,100205.94
2023-09-18T11:20:33.545Z,100206.31
2023-09-18T11:23:44.034Z,100200.31
2023-09-18T11:26:50.918Z,100194.97
2023-09-18T11:29:56.235Z,100187.06
2023-09-18T11:32:59.618Z,100187.81
2023-09-18T11:36:08.655Z,100184.25
2023-09-18T11:39:12.928Z,100181.94
2023-09-18T11:42:18.994Z,100177.13
2023-09-18T11:45:22.330Z,100175.31
2023-09-18T11:48:29.123Z,100177.97
2023-09-18T11:51:31.846Z,100172.03
2023-09-18T11:54:37.678Z,100172.47
2023-09-18T11:57:44.007Z,100149.09
2023-09-18T12:00:47.290Z,100146.69
2023-09-18T12:03:56.694Z,100151.38
2023-09-18T12:07:01.214Z,100134.84
2023-09-18T12:10:10.125Z,100138.87
2023-09-18T12:13:13.513Z,100140.91
2023-09-18T12:16:16.542Z,100129.88
2023-09-18T12:19:19.956Z,100126.94
2023-09-18T12:22:29.919Z,100119.53
2023-09-18T12:25:33.267Z,100134.47
2023-09-18T12:28:36.638Z,100133.41
2023-09-18T12:31:39.806Z,100120.84
2023-09-18T12:34:43.195Z,100127.03
2023-09-18T12:37:46.186Z,100116.69
2023-09-18T12:40:49.292Z,100122.25
2023-09-18T12:43:52.142Z,100109.16
2023-09-18T12:46:55.276Z,100105.91
2023-09-18T12:50:03.861Z,100094.66
2023-09-18T12:53:15.773Z,100095.16
2023-09-18T12:56:18.707Z,100099.91
2023-09-18T12:59:21.412Z,100085.00
2023-09-18T13:02:29.739Z,100089.00
2023-09-18T13:05:36.388Z,100078.22
2023-09-18T13:08:40.191Z,100091.87
2023-09-18T13:11:55.723Z,100088.19
2023-09-18T13:15:00.522Z,100082.16
2023-09-18T13:18:10.705Z,100078.38
2023-09-18T13:21:14.958Z,100071.63
2023-09-18T13:24:30.710Z,100070.94
2023-09-18T13:27:33.564Z,100056.31
2023-09-18T13:30:40.649Z,100063.16
2023-09-18T13:33:46.026Z,100069.34
2023-09-18T13:36:49.558Z,100060.47
2023-09-18T13:39:52.692Z,100045.06
2023-09-18T13:42:55.704Z,100029.19
2023-09-18T13:45:59.822Z,100029.44
2023-09-18T13:49:03.524Z,100025.06
2023-09-18T13:52:06.416Z,100020.13
2023-09-18T13:55:09.941Z,100006.56
2023-09-18T13:58:12.768Z,100006.47
2023-09-18T14:01:17.173Z,100002.78
2023-09-18T14:04:22.266Z,100000.84
2023-09-18T14:07:27.042Z,99996.91
2023-09-18T14:10:30.191Z,99998.69
2023-09-18T14:13:32.541Z,99995.00
2023-09-18T14:16:35.533Z,99989.06
2023-09-18T14:19:41.698Z,99992.53
2023-09-18T14:22:44.850Z,99984.78
2023-09-18T14:25:47.239Z,99973.84
2023-09-18T14:28:50.443Z,99977.66
2023-09-18T14:31:53.064Z,99959.03
2023-09-18T14:34:56.179Z,99958.62
2023-09-18T14:37:58.782Z,99957.19
2023-09-18T14:41:04.137Z,99958.28
2023-09-18T14:44:07.359Z,99967.75
2023-09-18T14:47:10.332Z,99962.91
2023-09-18T14:50:13.876Z,99957.97
2023-09-18T14:53:16.833Z,99952.12
2023-09-18T14:56:19.249Z,99943.78
2023-09-18T14:59:35.530Z,99945.41
2023-09-18T15:02:44.309Z,99956.06
2023-09-18T15:05:47.655Z,99947.34
2023-09-18T15:08:50.552Z,99943.00
2023-09-18T15:11:53.669Z,99946.84
2023-09-18T15:14:56.979Z,99939.81
2023-09-18T15:18:00.084Z,99940.59
2023-09-18T15:21:03.008Z,99939.16
2023-09-18T15:24:06.278Z,99935.38
2023-09-18T15:27:08.704Z,99928.62
2023-09-18T15:30:12.524Z,99917.13
2023-09-18T15:33:18.427Z,99908.94
2023-09-18T15:36:24.241Z,99909.19
2023-09-18T15:39:28.657Z,99908.63
2023-09-18T15:42:31.588Z,99897.81
2023-09-18T15:45:38.945Z,99890.25
2023-09-18T15:48:42.276Z,99880.00
2023-09-18T15:51:44.861Z,99871.16
2023-09-18T15:54:50.424Z,99863.81
2023-09-18T15:57:53.565Z,99863.87
2023-09-18T16:00:59.158Z,99864.03
2023-09-18T16:04:02.032Z,99869.78
2023-09-18T16:07:04.718Z,99865.53
2023-09-18T16:10:08.342Z,99860.59
2023-09-18T16:13:11.974Z,99853.63
2023-09-18T16:16:14.801Z,99855.13
2023-09-18T16:19:17.970Z,99850.91
2023-09-18T16:22:27.319Z,99847.69
2023-09-18T16:25:33.634Z,99851.47
2023-09-18T16:28:37.833Z,99835.63
2023-09-18T16:31:49.470Z,99839.53
2023-09-18T16:34:53.048Z,99823.56
2023-09-18T16:37:57.448Z,99824.91
2023-09-18T16:41:00.437Z,99828.81
2023-09-18T16:44:03.184Z,99833.56
2023-09-18T16:47:06.532Z,99828.72
2023-09-18T16:50:10.305Z,99825.69
2023-09-18T16:53:13.136Z,99815.12
2023-09-18T16:56:16.127Z,99822.72
2023-09-18T16:59:21.031Z,99821.31
2023-09-18T17:02:23.743Z,99813.69
2023-09-18T17:05:26.534Z,99820.47
2023-09-18T17:08:29.467Z,99818.84
2023-09-18T17:11:33.065Z,99812.66
2023-09-18T17:14:35.958Z,99812.78
2023-09-18T17:17:39.611Z,99810.37
2023-09-18T17:20:42.790Z,99803.47
2023-09-18T17:23:45.610Z,99796.28
2023-09-18T17:26:50.947Z,99800.75
2023-09-18T17:29:57.605Z,99803.13
2023-09-18T17:33:02.563Z,99806.09
2023-09-18T17:36:06.943Z,99807.22
2023-09-18T17:39:11.428Z,99804.78
2023-09-18T17:42:14.367Z,99802.09
2023-09-18T17:45:18.156Z,99803.09
2023-09-18T17:48:22.988Z,99799.78
2023-09-18T17:51:26.000Z,99806.06
2023-09-18T17:54:28.829Z,99806.06
2023-09-18T17:57:32.348Z,99800.03
2023-09-18T18:00:35.291Z,99791.94
2023-09-18T18:03:41.113Z,99795.91
2023-09-18T18:06:44.754Z,99790.88
2023-09-18T18:09:48.005Z,99799.59
2023-09-18T18:12:50.682Z,99790.13
2023-09-18T18:15:57.357Z,99793.00
2023-09-18T18:19:07.967Z,99794.03
2023-09-18T18:22:11.354Z,99797.75
2023-09-18T18:25:16.897Z,99793.41
2023-09-18T18:28:20.170Z,99787.37
2023-09-18T18:31:22.858Z,99790.16
2023-09-18T18:34:29.018Z,99790.09
2023-09-18T18:37:32.343Z,99795.37
2023-09-18T18:40:41.944Z,99785.81
2023-09-18T18:43:44.673Z,99784.75
2023-09-18T18:46:47.890Z,99787.81
2023-09-18T18:49:50.330Z,99788.69
2023-09-18T18:52:53.491Z,99774.56
2023-09-18T18:55:56.203Z,99777.94
2023-09-18T18:58:59.429Z,99785.25
2023-09-18T19:02:05.021Z,99780.06
2023-09-18T19:05:11.757Z,99786.38
2023-09-18T19:08:14.212Z,99785.72
2023-09-18T19:11:17.897Z,99783.94
2023-09-18T19:14:20.371Z,99781.38
2023-09-18T19:17:24.512Z,99776.91
2023-09-18T19:20:30.296Z,99774.38
2023-09-18T19:23:36.468Z,99769.84
2023-09-18T19:26:39.094Z,99768.88
2023-09-18T19:29:43.565Z,99776.84
2023-09-18T19:32:47.919Z,99765.44
2023-09-18T19:35:51.828Z,99771.34
2023-09-18T19:38:55.056Z,99771.50
2023-09-18T19:42:02.749Z,99764.53
2023-09-18T19:45:05.818Z,99768.28
2023-09-18T19:48:09.171Z,99766.44
2023-09-18T19:51:11.686Z,99770.03
2023-09-18T19:54:15.917Z,99757.72
2023-09-18T19:57:20.023Z,99752.25
2023-09-18T20:00:23.497Z,99758.13
2023-09-18T20:03:26.578Z,99753.72
2023-09-18T20:06:31.243Z,99760.91
2023-09-18T20:09:36.460Z,99757.34
2023-09-18T20:12:39.862Z,99750.44
2023-09-18T20:15:42.856Z,99757.72
2023-09-18T20:18:46.512Z,99757.87
2023-09-18T20:21:51.017Z,99762.34
2023-09-18T20:24:53.995Z,99755.44
2023-09-18T20:28:01.076Z,99760.84
2023-09-18T20:31:05.484Z,99756.56
2023-09-18T20:34:10.264Z,99756.66
2023-09-18T20:37:14.159Z,99746.97
2023-09-18T20:40:17.108Z,99761.34
2023-09-18T20:43:27.728Z,99744.72
2023-09-18T20:46:31.593Z,99743.91
2023-09-18T20:49:34.332Z,99749.09
2023-09-18T20:52:38.408Z,99746.75
2023-09-18T20:55:41.450Z,99747.75
2023-09-18T20:58:44.130Z,99746.03
2023-09-18T21:01:47.168Z,99749.47
2023-09-18T21:04:51.159Z,99744.19
2023-09-18T21:07:55.294Z,99739.06
2023-09-18T21:11:00.681Z,99740.06
2023-09-18T21:14:04.379Z,99740.34
2023-09-18T21:17:08.487Z,99730.59
2023-09-18T21:20:11.626Z,99734.09
2023-09-18T21:23:14.967Z,99733.91
2023-09-18T21:26:17.703Z,99736.69
2023-09-18T21:29:25.550Z,99725.13
2023-09-18T21:32:30.890Z,99728.53
2023-09-18T21:35:33.867Z,99726.94
2023-09-18T21:38:36.974Z,99739.59
2023-09-18T21:41:41.342Z,99739.41
2023-09-18T21:44:45.901Z,99737.69
2023-09-18T21:47:51.865Z,99741.25
2023-09-18T21:50:54.636Z,99737.00
2023-09-18T21:53:57.340Z,99738.59
2023-09-18T21:57:00.611Z,99732.34
2023-09-18T22:00:24.351Z,99727.06
2023-09-18T22:03:29.454Z,99732.72
2023-09-18T22:06:32.883Z,99721.13
2023-09-18T22:09:35.882Z,99724.56
2023-09-18T22:12:39.599Z,99713.63
2023-09-18T22:15:42.747Z,99717.91
2023-09-18T22:18:47.858Z,99723.12
2023-09-18T22:21:50.900Z,99717.00
2023-09-18T22:24:53.471Z,99715.19
2023-09-18T22:27:56.925Z,99714.28
2023-09-18T22:30:59.320Z,99711.66
2023-09-18T22:34:02.241Z,99711.47
2023-09-18T22:37:05.850Z,99701.03
2023-09-18T22:40:12.129Z,99705.28
2023-09-18T22:43:38.404Z,99702.81
2023-09-18T22:47:02.830Z,99691.53
2023-09-18T22:50:24.029Z,99698.84
2023-09-18T22:53:27.006Z,99698.69
2023-09-18T22:56:30.822Z,99696.19
2023-09-18T22:59:33.758Z,99706.25
2023-09-18T23:02:43.464Z,99702.66
2023-09-18T23:05:49.921Z,99696.47
2023-09-18T23:08:54.637Z,99706.31
2023-09-18T23:11:57.960Z,99695.94
2023-09-18T23:15:01.215Z,99708.50
2023-09-18T23:18:07.242Z,99692.50
2023-09-18T23:21:10.574Z,99688.16
2023-09-18T23:24:14.727Z,99693.19
2023-09-18T23:27:18.427Z,99691.72
2023-09-18T23:30:21.910Z,99691.66
2023-09-18T23:33:28.808Z,99685.81
2023-09-18T23:36:33.508Z,99684.97
2023-09-18T23:39:39.666Z,99692.88
2023-09-18T23:42:43.414Z,99684.06
2023-09-18T23:45:45.767Z,99683.19
2023-09-18T23:48:49.016Z,99675.13
2023-09-18T23:51:55.261Z,99687.00
2023-09-18T23:54:58.205Z,99679.81
2023-09-18T23:58:01.247Z,99686.91
